sensor_id;sensor_type;location;lat;lon;timestamp;temperature;humidity
76577;DHT22;65441;44.748;37.600;2022-12-20T00:01:54;0.47;75.19
76577;DHT22;65441;44.748;37.600;2022-12-20T00:04:34;0.68;88.71
76577;DHT22;65441;44.748;37.600;2022-12-20T00:07:14;0.37;76.80
76577;DHT22;65441;44.748;37.600;2022-12-20T00:09:51;0.43;85.64
76577;DHT22;65441;44.748;37.600;2022-12-20T00:12:28;1.06;92.84
76577;DHT22;65441;44.748;37.600;2022-12-20T00:15:07;0.67;76.71
76577;DHT22;65441;44.748;37.600;2022-12-20T00:17:43;0.46;77.03
76577;DHT22;65441;44.748;37.600;2022-12-20T00:20:19;0.43;83.91
76577;DHT22;65441;44.748;37.600;2022-12-20T00:22:57;0.34;79.84
76577;DHT22;65441;44.748;37.600;2022-12-20T00:25:31;-0.01;72.02
76577;DHT22;65441;44.748;37.600;2022-12-20T00:28:05;0.09;74.30
76577;DHT22;65441;44.748;37.600;2022-12-20T00:30:44;-0.00;80.28
76577;DHT22;65441;44.748;37.600;2022-12-20T00:33:20;0.34;84.29
76577;DHT22;65441;44.748;37.600;2022-12-20T00:35:56;0.51;86.77
76577;DHT22;65441;44.748;37.600;2022-12-20T00:38:33;0.25;78.37
76577;DHT22;65441;44.748;37.600;2022-12-20T00:41:14;0.09;80.13
76577;DHT22;65441;44.748;37.600;2022-12-20T00:43:48;0.12;75.18
76577;DHT22;65441;44.748;37.600;2022-12-20T00:46:28;-0.00;79.19
76577;DHT22;65441;44.748;37.600;2022-12-20T00:49:04;0.10;81.07
76577;DHT22;65441;44.748;37.600;2022-12-20T00:51:38;-0.54;71.18
76577;DHT22;65441;44.748;37.600;2022-12-20T00:54:14;-1.03;72.69
76577;DHT22;65441;44.748;37.600;2022-12-20T00:56:51;-1.36;74.57
76577;DHT22;65441;44.748;37.600;2022-12-20T00:59:26;-1.61;75.35
76577;DHT22;65441;44.748;37.600;2022-12-20T01:02:07;-1.68;75.85
76577;DHT22;65441;44.748;37.600;2022-12-20T01:04:42;-1.72;75.96
76577;DHT22;65441;44.748;37.600;2022-12-20T01:07:22;-1.82;76.05
76577;DHT22;65441;44.748;37.600;2022-12-20T01:10:01;-1.84;76.35
76577;DHT22;65441;44.748;37.600;2022-12-20T01:12:35;-1.80;76.32
76577;DHT22;65441;44.748;37.600;2022-12-20T01:15:14;-1.86;76.52
76577;DHT22;65441;44.748;37.600;2022-12-20T01:17:53;-1.91;76.50
76577;DHT22;65441;44.748;37.600;2022-12-20T01:20:29;-1.93;76.50
76577;DHT22;65441;44.748;37.600;2022-12-20T01:23:06;-1.93;76.44
76577;DHT22;65441;44.748;37.600;2022-12-20T01:25:41;-1.95;76.60
76577;DHT22;65441;44.748;37.600;2022-12-20T01:28:21;-1.98;76.79
76577;DHT22;65441;44.748;37.600;2022-12-20T01:30:58;-1.98;76.70
76577;DHT22;65441;44.748;37.600;2022-12-20T01:33:44;-2.01;76.82
76577;DHT22;65441;44.748;37.600;2022-12-20T01:36:23;-2.02;77.11
76577;DHT22;65441;44.748;37.600;2022-12-20T01:39:04;-2.04;77.34
76577;DHT22;65441;44.748;37.600;2022-12-20T01:41:44;-2.04;77.18
76577;DHT22;65441;44.748;37.600;2022-12-20T01:44:54;-2.03;76.98
76577;DHT22;65441;44.748;37.600;2022-12-20T01:47:36;-2.07;76.98
76577;DHT22;65441;44.748;37.600;2022-12-20T01:50:18;-2.10;77.07
76577;DHT22;65441;44.748;37.600;2022-12-20T01:52:55;-2.10;76.69
76577;DHT22;65441;44.748;37.600;2022-12-20T01:55:32;-2.13;77.24
76577;DHT22;65441;44.748;37.600;2022-12-20T01:58:09;-2.14;77.60
76577;DHT22;65441;44.748;37.600;2022-12-20T02:00:50;-2.17;77.31
76577;DHT22;65441;44.748;37.600;2022-12-20T02:03:29;-2.20;77.44
76577;DHT22;65441;44.748;37.600;2022-12-20T02:06:22;-2.23;77.54
76577;DHT22;65441;44.748;37.600;2022-12-20T02:09:02;-2.22;77.89
76577;DHT22;65441;44.748;37.600;2022-12-20T02:11:57;-2.21;77.44
76577;DHT22;65441;44.748;37.600;2022-12-20T02:14:51;-2.23;77.64
76577;DHT22;65441;44.748;37.600;2022-12-20T02:17:40;-2.33;77.98
76577;DHT22;65441;44.748;37.600;2022-12-20T02:30:10;-2.38;79.11
76577;DHT22;65441;44.748;37.600;2022-12-20T02:32:55;-2.42;78.85
76577;DHT22;65441;44.748;37.600;2022-12-20T02:35:32;-2.44;79.37
76577;DHT22;65441;44.748;37.600;2022-12-20T02:38:25;-2.44;79.32
76577;DHT22;65441;44.748;37.600;2022-12-20T02:41:15;-2.44;79.19
76577;DHT22;65441;44.748;37.600;2022-12-20T02:43:53;-2.47;79.45
76577;DHT22;65441;44.748;37.600;2022-12-20T02:47:03;-2.45;79.71
76577;DHT22;65441;44.748;37.600;2022-12-20T02:49:39;-2.47;79.75
76577;DHT22;65441;44.748;37.600;2022-12-20T02:52:21;-2.48;79.46
76577;DHT22;65441;44.748;37.600;2022-12-20T02:54:59;-2.50;79.97
76577;DHT22;65441;44.748;37.600;2022-12-20T02:57:47;-2.51;79.91
76577;DHT22;65441;44.748;37.600;2022-12-20T03:00:32;-2.46;80.25
76577;DHT22;65441;44.748;37.600;2022-12-20T03:03:13;-2.49;80.23
76577;DHT22;65441;44.748;37.600;2022-12-20T03:05:58;-2.50;80.34
76577;DHT22;65441;44.748;37.600;2022-12-20T03:08:36;-2.52;80.59
76577;DHT22;65441;44.748;37.600;2022-12-20T03:11:14;-2.54;80.43
76577;DHT22;65441;44.748;37.600;2022-12-20T03:13:49;-2.51;80.49
76577;DHT22;65441;44.748;37.600;2022-12-20T03:16:26;-2.49;80.64
76577;DHT22;65441;44.748;37.600;2022-12-20T03:19:04;-2.52;80.59
76577;DHT22;65441;44.748;37.600;2022-12-20T03:21:43;-2.53;80.48
76577;DHT22;65441;44.748;37.600;2022-12-20T03:24:18;-2.53;80.59
76577;DHT22;65441;44.748;37.600;2022-12-20T03:27:00;-2.49;80.24
76577;DHT22;65441;44.748;37.600;2022-12-20T03:29:44;-2.52;80.68
76577;DHT22;65441;44.748;37.600;2022-12-20T03:32:21;-2.49;80.49
76577;DHT22;65441;44.748;37.600;2022-12-20T03:34:59;-2.43;79.76
76577;DHT22;65441;44.748;37.600;2022-12-20T03:37:43;-2.38;80.07
76577;DHT22;65441;44.748;37.600;2022-12-20T03:43:10;-2.41;79.59
76577;DHT22;65441;44.748;37.600;2022-12-20T03:45:50;-2.42;79.71
76577;DHT22;65441;44.748;37.600;2022-12-20T03:48:28;-2.39;80.20
76577;DHT22;65441;44.748;37.600;2022-12-20T03:51:10;-2.37;80.21
76577;DHT22;65441;44.748;37.600;2022-12-20T03:53:49;-2.42;80.14
76577;DHT22;65441;44.748;37.600;2022-12-20T03:56:28;-2.44;80.51
76577;DHT22;65441;44.748;37.600;2022-12-20T03:59:06;-2.46;80.37
76577;DHT22;65441;44.748;37.600;2022-12-20T04:01:43;-2.42;80.24
76577;DHT22;65441;44.748;37.600;2022-12-20T04:04:25;-2.41;80.13
76577;DHT22;65441;44.748;37.600;2022-12-20T04:07:02;-2.44;79.94
76577;DHT22;65441;44.748;37.600;2022-12-20T04:09:45;-2.45;79.91
76577;DHT22;65441;44.748;37.600;2022-12-20T04:12:23;-2.37;79.37
76577;DHT22;65441;44.748;37.600;2022-12-20T04:15:00;-2.34;79.72
76577;DHT22;65441;44.748;37.600;2022-12-20T04:17:39;-2.34;79.28
76577;DHT22;65441;44.748;37.600;2022-12-20T04:20:18;-2.35;78.94
76577;DHT22;65441;44.748;37.600;2022-12-20T04:23:04;-2.38;79.14
76577;DHT22;65441;44.748;37.600;2022-12-20T04:25:38;-2.36;78.27
76577;DHT22;65441;44.748;37.600;2022-12-20T04:28:15;-2.30;78.18
76577;DHT22;65441;44.748;37.600;2022-12-20T04:30:51;-2.27;77.75
76577;DHT22;65441;44.748;37.600;2022-12-20T04:33:31;-2.21;77.08
76577;DHT22;65441;44.748;37.600;2022-12-20T04:36:08;-2.24;77.38
76577;DHT22;65441;44.748;37.600;2022-12-20T04:38:50;-2.19;77.36
76577;DHT22;65441;44.748;37.600;2022-12-20T04:41:36;-2.16;76.96
76577;DHT22;65441;44.748;37.600;2022-12-20T04:44:20;-2.17;77.52
76577;DHT22;65441;44.748;37.600;2022-12-20T04:46:55;-2.16;76.80
76577;DHT22;65441;44.748;37.600;2022-12-20T04:49:31;-2.13;76.41
76577;DHT22;65441;44.748;37.600;2022-12-20T04:52:11;-2.14;76.77
76577;DHT22;65441;44.748;37.600;2022-12-20T04:55:08;-2.08;76.69
76577;DHT22;65441;44.748;37.600;2022-12-20T04:57:46;-2.16;76.53
76577;DHT22;65441;44.748;37.600;2022-12-20T05:00:22;-2.17;77.69
76577;DHT22;65441;44.748;37.600;2022-12-20T05:03:12;-2.17;77.53
76577;DHT22;65441;44.748;37.600;2022-12-20T05:05:48;-2.21;77.68
76577;DHT22;65441;44.748;37.600;2022-12-20T05:08:25;-2.24;77.98
76577;DHT22;65441;44.748;37.600;2022-12-20T05:11:07;-2.23;77.89
76577;DHT22;65441;44.748;37.600;2022-12-20T05:13:42;-2.19;77.62
76577;DHT22;65441;44.748;37.600;2022-12-20T05:16:24;-2.18;76.38
76577;DHT22;65441;44.748;37.600;2022-12-20T05:19:08;-2.17;77.15
76577;DHT22;65441;44.748;37.600;2022-12-20T05:21:50;-2.20;76.08
76577;DHT22;65441;44.748;37.600;2022-12-20T05:24:49;-2.18;76.49
76577;DHT22;65441;44.748;37.600;2022-12-20T05:27:45;-2.18;76.48
76577;DHT22;65441;44.748;37.600;2022-12-20T05:30:21;-2.19;76.08
76577;DHT22;65441;44.748;37.600;2022-12-20T05:32:58;-2.12;76.11
76577;DHT22;65441;44.748;37.600;2022-12-20T05:35:38;-2.12;76.99
76577;DHT22;65441;44.748;37.600;2022-12-20T05:38:20;-2.12;76.94
76577;DHT22;65441;44.748;37.600;2022-12-20T05:41:01;-2.09;77.04
76577;DHT22;65441;44.748;37.600;2022-12-20T05:43:40;-2.04;75.60
76577;DHT22;65441;44.748;37.600;2022-12-20T05:46:21;-2.02;75.62
76577;DHT22;65441;44.748;37.600;2022-12-20T05:49:20;-2.00;75.46
76577;DHT22;65441;44.748;37.600;2022-12-20T05:51:58;-1.93;74.80
76577;DHT22;65441;44.748;37.600;2022-12-20T05:54:33;-1.65;74.06
76577;DHT22;65441;44.748;37.600;2022-12-20T05:57:15;-1.39;73.62
76577;DHT22;65441;44.748;37.600;2022-12-20T05:59:54;-0.93;70.29
76577;DHT22;65441;44.748;37.600;2022-12-20T06:02:35;-0.95;69.77
76577;DHT22;65441;44.748;37.600;2022-12-20T06:05:11;-0.45;69.26
76577;DHT22;65441;44.748;37.600;2022-12-20T06:07:49;0.06;67.36
76577;DHT22;65441;44.748;37.600;2022-12-20T06:10:27;0.27;66.47
76577;DHT22;65441;44.748;37.600;2022-12-20T06:13:04;0.92;64.40
76577;DHT22;65441;44.748;37.600;2022-12-20T06:15:45;1.69;61.95
76577;DHT22;65441;44.748;37.600;2022-12-20T06:18:20;1.45;61.47
76577;DHT22;65441;44.748;37.600;2022-12-20T06:20:57;2.30;60.02
76577;DHT22;65441;44.748;37.600;2022-12-20T06:23:33;2.82;56.85
76577;DHT22;65441;44.748;37.600;2022-12-20T06:26:13;3.00;55.51
76577;DHT22;65441;44.748;37.600;2022-12-20T06:28:53;3.29;55.16
76577;DHT22;65441;44.748;37.600;2022-12-20T06:31:42;2.78;57.21
76577;DHT22;65441;44.748;37.600;2022-12-20T06:34:17;2.97;57.64
76577;DHT22;65441;44.748;37.600;2022-12-20T06:36:52;2.36;58.64
76577;DHT22;65441;44.748;37.600;2022-12-20T06:39:30;2.31;58.69
76577;DHT22;65441;44.748;37.600;2022-12-20T06:42:08;2.09;57.85
76577;DHT22;65441;44.748;37.600;2022-12-20T06:44:47;1.99;59.01
76577;DHT22;65441;44.748;37.600;2022-12-20T06:47:28;2.46;60.34
76577;DHT22;65441;44.748;37.600;2022-12-20T06:50:05;2.54;58.04
76577;DHT22;65441;44.748;37.600;2022-12-20T06:52:41;2.52;57.55
76577;DHT22;65441;44.748;37.600;2022-12-20T06:55:15;2.73;56.23
76577;DHT22;65441;44.748;37.600;2022-12-20T06:57:50;3.03;55.30
76577;DHT22;65441;44.748;37.600;2022-12-20T07:00:28;3.78;54.55
76577;DHT22;65441;44.748;37.600;2022-12-20T07:03:03;3.86;55.30
76577;DHT22;65441;44.748;37.600;2022-12-20T07:05:37;3.87;51.48
76577;DHT22;65441;44.748;37.600;2022-12-20T07:08:12;3.59;53.99
76577;DHT22;65441;44.748;37.600;2022-12-20T07:10:46;3.24;52.73
76577;DHT22;65441;44.748;37.600;2022-12-20T07:13:21;2.74;52.46
76577;DHT22;65441;44.748;37.600;2022-12-20T07:15:57;3.39;53.91
76577;DHT22;65441;44.748;37.600;2022-12-20T07:18:33;4.38;52.14
76577;DHT22;65441;44.748;37.600;2022-12-20T07:21:08;5.13;48.82
76577;DHT22;65441;44.748;37.600;2022-12-20T07:23:42;5.25;46.70
76577;DHT22;65441;44.748;37.600;2022-12-20T07:26:18;4.98;50.97
76577;DHT22;65441;44.748;37.600;2022-12-20T07:28:52;3.69;50.73
76577;DHT22;65441;44.748;37.600;2022-12-20T07:31:28;2.93;54.68
76577;DHT22;65441;44.748;37.600;2022-12-20T07:34:05;3.26;53.71
76577;DHT22;65441;44.748;37.600;2022-12-20T07:36:39;3.17;55.83
76577;DHT22;65441;44.748;37.600;2022-12-20T07:39:14;3.27;58.41
76577;DHT22;65441;44.748;37.600;2022-12-20T07:41:48;2.94;56.87
76577;DHT22;65441;44.748;37.600;2022-12-20T07:44:23;3.09;56.73
76577;DHT22;65441;44.748;37.600;2022-12-20T07:46:56;3.53;57.51
76577;DHT22;65441;44.748;37.600;2022-12-20T07:49:32;3.78;53.26
76577;DHT22;65441;44.748;37.600;2022-12-20T07:52:07;3.91;54.26
76577;DHT22;65441;44.748;37.600;2022-12-20T07:54:44;4.31;52.13
76577;DHT22;65441;44.748;37.600;2022-12-20T07:57:22;4.37;57.19
76577;DHT22;65441;44.748;37.600;2022-12-20T08:00:02;3.38;55.41
76577;DHT22;65441;44.748;37.600;2022-12-20T08:02:51;3.97;54.42
76577;DHT22;65441;44.748;37.600;2022-12-20T08:05:28;3.74;56.25
76577;DHT22;65441;44.748;37.600;2022-12-20T08:08:04;3.64;57.69
76577;DHT22;65441;44.748;37.600;2022-12-20T08:10:38;3.83;52.06
76577;DHT22;65441;44.748;37.600;2022-12-20T08:13:13;3.46;55.60
76577;DHT22;65441;44.748;37.600;2022-12-20T08:15:49;3.05;56.52
76577;DHT22;65441;44.748;37.600;2022-12-20T08:18:24;3.21;54.20
76577;DHT22;65441;44.748;37.600;2022-12-20T08:20:59;3.47;54.24
76577;DHT22;65441;44.748;37.600;2022-12-20T08:23:33;3.02;56.39
76577;DHT22;65441;44.748;37.600;2022-12-20T08:26:07;3.83;57.47
76577;DHT22;65441;44.748;37.600;2022-12-20T08:28:41;4.18;54.78
76577;DHT22;65441;44.748;37.600;2022-12-20T08:31:15;4.64;52.84
76577;DHT22;65441;44.748;37.600;2022-12-20T08:33:49;4.84;52.61
76577;DHT22;65441;44.748;37.600;2022-12-20T08:36:27;5.10;56.04
76577;DHT22;65441;44.748;37.600;2022-12-20T08:39:02;5.21;52.98
76577;DHT22;65441;44.748;37.600;2022-12-20T08:41:36;4.42;51.22
76577;DHT22;65441;44.748;37.600;2022-12-20T08:44:10;4.15;52.77
76577;DHT22;65441;44.748;37.600;2022-12-20T08:46:44;4.52;51.67
76577;DHT22;65441;44.748;37.600;2022-12-20T08:49:18;5.00;50.63
76577;DHT22;65441;44.748;37.600;2022-12-20T08:51:53;5.03;50.02
76577;DHT22;65441;44.748;37.600;2022-12-20T08:54:27;5.05;51.34
76577;DHT22;65441;44.748;37.600;2022-12-20T08:57:01;5.30;50.86
76577;DHT22;65441;44.748;37.600;2022-12-20T08:59:35;5.45;51.46
76577;DHT22;65441;44.748;37.600;2022-12-20T09:02:09;5.48;46.06
76577;DHT22;65441;44.748;37.600;2022-12-20T09:04:43;4.97;48.02
76577;DHT22;65441;44.748;37.600;2022-12-20T09:07:19;4.96;50.83
76577;DHT22;65441;44.748;37.600;2022-12-20T09:09:53;5.50;49.89
76577;DHT22;65441;44.748;37.600;2022-12-20T09:12:26;6.04;49.02
76577;DHT22;65441;44.748;37.600;2022-12-20T09:15:01;5.84;46.15
76577;DHT22;65441;44.748;37.600;2022-12-20T09:17:35;5.87;46.28
76577;DHT22;65441;44.748;37.600;2022-12-20T09:20:09;6.48;49.76
76577;DHT22;65441;44.748;37.600;2022-12-20T09:22:44;6.79;45.44
76577;DHT22;65441;44.748;37.600;2022-12-20T09:25:18;6.90;46.47
76577;DHT22;65441;44.748;37.600;2022-12-20T09:27:52;6.70;47.14
76577;DHT22;65441;44.748;37.600;2022-12-20T09:30:27;6.42;44.13
76577;DHT22;65441;44.748;37.600;2022-12-20T09:33:01;6.70;46.49
76577;DHT22;65441;44.748;37.600;2022-12-20T09:35:36;6.37;43.68
76577;DHT22;65441;44.748;37.600;2022-12-20T09:38:17;6.71;45.30
76577;DHT22;65441;44.748;37.600;2022-12-20T09:40:53;6.67;44.66
76577;DHT22;65441;44.748;37.600;2022-12-20T09:43:28;6.76;44.05
76577;DHT22;65441;44.748;37.600;2022-12-20T09:46:02;6.56;44.92
76577;DHT22;65441;44.748;37.600;2022-12-20T09:48:37;6.58;44.83
76577;DHT22;65441;44.748;37.600;2022-12-20T09:51:24;6.53;41.29
76577;DHT22;65441;44.748;37.600;2022-12-20T09:54:09;6.57;43.35
76577;DHT22;65441;44.748;37.600;2022-12-20T09:56:54;6.75;41.56
76577;DHT22;65441;44.748;37.600;2022-12-20T09:59:33;7.02;42.61
76577;DHT22;65441;44.748;37.600;2022-12-20T10:02:08;6.91;40.26
76577;DHT22;65441;44.748;37.600;2022-12-20T10:04:44;7.18;41.91
76577;DHT22;65441;44.748;37.600;2022-12-20T10:07:28;7.27;41.99
76577;DHT22;65441;44.748;37.600;2022-12-20T10:13:22;7.22;41.34
76577;DHT22;65441;44.748;37.600;2022-12-20T10:16:05;7.03;38.77
76577;DHT22;65441;44.748;37.600;2022-12-20T10:18:48;6.86;39.36
76577;DHT22;65441;44.748;37.600;2022-12-20T10:21:30;7.08;38.91
76577;DHT22;65441;44.748;37.600;2022-12-20T10:24:11;7.58;41.06
76577;DHT22;65441;44.748;37.600;2022-12-20T10:26:50;8.00;38.17
76577;DHT22;65441;44.748;37.600;2022-12-20T10:29:24;8.23;39.24
76577;DHT22;65441;44.748;37.600;2022-12-20T10:31:58;8.38;36.82
76577;DHT22;65441;44.748;37.600;2022-12-20T10:34:33;8.21;37.95
76577;DHT22;65441;44.748;37.600;2022-12-20T10:37:11;8.76;36.63
76577;DHT22;65441;44.748;37.600;2022-12-20T10:39:48;8.64;33.66
76577;DHT22;65441;44.748;37.600;2022-12-20T10:42:37;8.33;36.41
76577;DHT22;65441;44.748;37.600;2022-12-20T10:45:26;8.26;36.32
76577;DHT22;65441;44.748;37.600;2022-12-20T10:48:03;8.53;34.20
76577;DHT22;65441;44.748;37.600;2022-12-20T10:50:37;8.20;36.31
76577;DHT22;65441;44.748;37.600;2022-12-20T10:53:22;8.02;37.62
76577;DHT22;65441;44.748;37.600;2022-12-20T10:56:15;7.74;35.73
76577;DHT22;65441;44.748;37.600;2022-12-20T10:58:55;7.72;37.15
76577;DHT22;65441;44.748;37.600;2022-12-20T11:01:31;7.37;37.86
76577;DHT22;65441;44.748;37.600;2022-12-20T11:04:24;7.27;38.85
76577;DHT22;65441;44.748;37.600;2022-12-20T11:06:59;7.04;38.93
76577;DHT22;65441;44.748;37.600;2022-12-20T11:09:34;6.28;40.04
76577;DHT22;65441;44.748;37.600;2022-12-20T11:12:12;6.69;39.91
76577;DHT22;65441;44.748;37.600;2022-12-20T11:14:48;7.20;38.91
76577;DHT22;65441;44.748;37.600;2022-12-20T11:17:28;7.01;38.35
76577;DHT22;65441;44.748;37.600;2022-12-20T11:20:21;7.10;36.30
76577;DHT22;65441;44.748;37.600;2022-12-20T11:23:08;7.83;39.89
76577;DHT22;65441;44.748;37.600;2022-12-20T11:25:54;8.14;36.82
76577;DHT22;65441;44.748;37.600;2022-12-20T11:28:45;8.75;41.16
76577;DHT22;65441;44.748;37.600;2022-12-20T11:31:31;8.95;37.78
76577;DHT22;65441;44.748;37.600;2022-12-20T11:34:21;9.02;36.32
76577;DHT22;65441;44.748;37.600;2022-12-20T11:37:18;8.90;38.01
76577;DHT22;65441;44.748;37.600;2022-12-20T11:40:09;8.71;39.28
76577;DHT22;65441;44.748;37.600;2022-12-20T11:42:54;8.50;39.02
76577;DHT22;65441;44.748;37.600;2022-12-20T11:45:35;8.13;41.10
76577;DHT22;65441;44.748;37.600;2022-12-20T11:48:25;7.76;42.40
76577;DHT22;65441;44.748;37.600;2022-12-20T11:51:08;7.97;42.23
76577;DHT22;65441;44.748;37.600;2022-12-20T11:53:52;8.05;41.14
76577;DHT22;65441;44.748;37.600;2022-12-20T11:56:31;7.87;42.98
76577;DHT22;65441;44.748;37.600;2022-12-20T11:59:11;7.77;42.99
76577;DHT22;65441;44.748;37.600;2022-12-20T12:01:51;7.56;42.74
76577;DHT22;65441;44.748;37.600;2022-12-20T12:04:31;7.41;42.73
76577;DHT22;65441;44.748;37.600;2022-12-20T12:07:10;7.28;44.48
76577;DHT22;65441;44.748;37.600;2022-12-20T12:09:54;7.07;44.70
76577;DHT22;65441;44.748;37.600;2022-12-20T12:12:32;7.03;45.56
76577;DHT22;65441;44.748;37.600;2022-12-20T12:15:20;6.95;45.31
76577;DHT22;65441;44.748;37.600;2022-12-20T12:17:59;6.78;45.78
76577;DHT22;65441;44.748;37.600;2022-12-20T12:20:43;6.66;45.62
76577;DHT22;65441;44.748;37.600;2022-12-20T12:23:23;6.61;46.84
76577;DHT22;65441;44.748;37.600;2022-12-20T12:26:01;6.54;46.11
76577;DHT22;65441;44.748;37.600;2022-12-20T12:28:36;6.54;47.09
76577;DHT22;65441;44.748;37.600;2022-12-20T12:31:13;6.39;47.25
76577;DHT22;65441;44.748;37.600;2022-12-20T12:33:52;6.17;47.28
76577;DHT22;65441;44.748;37.600;2022-12-20T12:36:46;5.90;48.03
76577;DHT22;65441;44.748;37.600;2022-12-20T12:39:42;5.65;49.30
76577;DHT22;65441;44.748;37.600;2022-12-20T12:42:50;5.30;49.45
76577;DHT22;65441;44.748;37.600;2022-12-20T12:45:33;5.02;50.15
76577;DHT22;65441;44.748;37.600;2022-12-20T12:48:14;4.83;51.24
76577;DHT22;65441;44.748;37.600;2022-12-20T12:50:51;4.69;51.30
76577;DHT22;65441;44.748;37.600;2022-12-20T12:53:33;4.62;51.55
76577;DHT22;65441;44.748;37.600;2022-12-20T12:56:39;4.46;52.16
76577;DHT22;65441;44.748;37.600;2022-12-20T12:59:40;4.31;51.96
76577;DHT22;65441;44.748;37.600;2022-12-20T13:02:35;4.23;52.98
76577;DHT22;65441;44.748;37.600;2022-12-20T13:05:34;4.17;53.22
76577;DHT22;65441;44.748;37.600;2022-12-20T13:08:15;4.07;53.49
76577;DHT22;65441;44.748;37.600;2022-12-20T13:11:11;3.94;52.43
76577;DHT22;65441;44.748;37.600;2022-12-20T13:13:46;3.91;53.07
76577;DHT22;65441;44.748;37.600;2022-12-20T13:16:27;3.74;53.60
76577;DHT22;65441;44.748;37.600;2022-12-20T13:19:11;3.63;54.60
76577;DHT22;65441;44.748;37.600;2022-12-20T13:21:46;3.47;53.83
76577;DHT22;65441;44.748;37.600;2022-12-20T13:24:49;3.45;54.42
76577;DHT22;65441;44.748;37.600;2022-12-20T13:27:30;3.47;54.76
76577;DHT22;65441;44.748;37.600;2022-12-20T13:30:23;3.39;54.87
76577;DHT22;65441;44.748;37.600;2022-12-20T13:36:01;3.27;54.58
76577;DHT22;65441;44.748;37.600;2022-12-20T13:38:57;3.23;54.55
76577;DHT22;65441;44.748;37.600;2022-12-20T13:41:40;3.06;54.23
76577;DHT22;65441;44.748;37.600;2022-12-20T13:44:40;3.06;53.99
76577;DHT22;65441;44.748;37.600;2022-12-20T13:47:30;3.03;53.68
76577;DHT22;65441;44.748;37.600;2022-12-20T13:50:26;2.90;55.13
76577;DHT22;65441;44.748;37.600;2022-12-20T13:53:01;2.81;54.67
76577;DHT22;65441;44.748;37.600;2022-12-20T13:55:38;2.53;55.07
76577;DHT22;65441;44.748;37.600;2022-12-20T13:58:17;2.55;55.91
76577;DHT22;65441;44.748;37.600;2022-12-20T14:00:53;2.28;56.52
76577;DHT22;65441;44.748;37.600;2022-12-20T14:03:41;2.38;57.44
76577;DHT22;65441;44.748;37.600;2022-12-20T14:06:19;2.46;55.80
76577;DHT22;65441;44.748;37.600;2022-12-20T14:08:53;2.49;56.31
76577;DHT22;65441;44.748;37.600;2022-12-20T14:11:30;2.54;56.74
76577;DHT22;65441;44.748;37.600;2022-12-20T14:14:10;2.51;58.68
76577;DHT22;65441;44.748;37.600;2022-12-20T14:16:48;2.46;57.96
76577;DHT22;65441;44.748;37.600;2022-12-20T14:19:23;2.34;59.78
76577;DHT22;65441;44.748;37.600;2022-12-20T14:22:00;2.14;58.06
76577;DHT22;65441;44.748;37.600;2022-12-20T14:24:35;2.24;60.44
76577;DHT22;65441;44.748;37.600;2022-12-20T14:27:12;2.20;59.22
76577;DHT22;65441;44.748;37.600;2022-12-20T14:29:47;2.14;58.46
76577;DHT22;65441;44.748;37.600;2022-12-20T14:32:24;2.14;57.18
76577;DHT22;65441;44.748;37.600;2022-12-20T14:35:00;2.27;56.42
76577;DHT22;65441;44.748;37.600;2022-12-20T14:37:37;2.15;57.07
76577;DHT22;65441;44.748;37.600;2022-12-20T14:40:17;1.94;58.19
76577;DHT22;65441;44.748;37.600;2022-12-20T14:42:53;2.09;57.71
76577;DHT22;65441;44.748;37.600;2022-12-20T14:45:27;2.00;59.96
76577;DHT22;65441;44.748;37.600;2022-12-20T14:48:05;2.12;60.66
76577;DHT22;65441;44.748;37.600;2022-12-20T14:50:51;2.06;61.48
76577;DHT22;65441;44.748;37.600;2022-12-20T14:53:27;1.98;59.25
76577;DHT22;65441;44.748;37.600;2022-12-20T14:56:01;1.98;59.55
76577;DHT22;65441;44.748;37.600;2022-12-20T14:58:35;1.90;59.76
76577;DHT22;65441;44.748;37.600;2022-12-20T15:01:18;1.88;60.31
76577;DHT22;65441;44.748;37.600;2022-12-20T15:03:55;1.81;60.37
76577;DHT22;65441;44.748;37.600;2022-12-20T15:06:36;1.77;61.67
76577;DHT22;65441;44.748;37.600;2022-12-20T15:09:14;1.67;60.88
76577;DHT22;65441;44.748;37.600;2022-12-20T15:11:49;1.76;61.72
76577;DHT22;65441;44.748;37.600;2022-12-20T15:14:32;1.77;61.26
76577;DHT22;65441;44.748;37.600;2022-12-20T15:17:10;1.77;62.24
76577;DHT22;65441;44.748;37.600;2022-12-20T15:19:46;1.75;62.73
76577;DHT22;65441;44.748;37.600;2022-12-20T15:22:20;1.68;63.24
76577;DHT22;65441;44.748;37.600;2022-12-20T15:24:56;1.66;63.68
76577;DHT22;65441;44.748;37.600;2022-12-20T15:27:33;1.66;64.25
76577;DHT22;65441;44.748;37.600;2022-12-20T15:30:10;1.54;63.98
76577;DHT22;65441;44.748;37.600;2022-12-20T15:32:48;1.50;64.53
76577;DHT22;65441;44.748;37.600;2022-12-20T15:35:27;1.48;63.60
76577;DHT22;65441;44.748;37.600;2022-12-20T15:38:03;1.41;63.65
76577;DHT22;65441;44.748;37.600;2022-12-20T15:40:39;1.33;63.91
76577;DHT22;65441;44.748;37.600;2022-12-20T15:43:17;1.38;63.77
76577;DHT22;65441;44.748;37.600;2022-12-20T15:45:53;1.42;64.13
76577;DHT22;65441;44.748;37.600;2022-12-20T15:48:31;1.45;64.18
76577;DHT22;65441;44.748;37.600;2022-12-20T15:51:15;1.41;64.56
76577;DHT22;65441;44.748;37.600;2022-12-20T15:53:49;1.42;64.95
76577;DHT22;65441;44.748;37.600;2022-12-20T15:56:26;1.37;64.71
76577;DHT22;65441;44.748;37.600;2022-12-20T15:59:01;1.36;65.83
76577;DHT22;65441;44.748;37.600;2022-12-20T16:01:36;1.29;65.23
76577;DHT22;65441;44.748;37.600;2022-12-20T16:04:14;1.37;65.78
76577;DHT22;65441;44.748;37.600;2022-12-20T16:06:52;1.37;64.63
76577;DHT22;65441;44.748;37.600;2022-12-20T16:09:28;1.42;64.88
76577;DHT22;65441;44.748;37.600;2022-12-20T16:12:09;1.43;64.85
76577;DHT22;65441;44.748;37.600;2022-12-20T16:14:47;1.35;65.72
76577;DHT22;65441;44.748;37.600;2022-12-20T16:17:23;1.35;65.37
76577;DHT22;65441;44.748;37.600;2022-12-20T16:19:57;1.36;65.08
76577;DHT22;65441;44.748;37.600;2022-12-20T16:22:33;1.23;65.32
76577;DHT22;65441;44.748;37.600;2022-12-20T16:25:22;0.96;65.33
76577;DHT22;65441;44.748;37.600;2022-12-20T16:28:03;1.10;66.31
76577;DHT22;65441;44.748;37.600;2022-12-20T16:30:39;0.84;65.19
76577;DHT22;65441;44.748;37.600;2022-12-20T16:33:18;0.89;65.01
76577;DHT22;65441;44.748;37.600;2022-12-20T16:35:56;0.97;62.66
76577;DHT22;65441;44.748;37.600;2022-12-20T16:38:32;1.06;63.07
76577;DHT22;65441;44.748;37.600;2022-12-20T16:41:11;1.07;63.17
76577;DHT22;65441;44.748;37.600;2022-12-20T16:43:50;1.11;62.25
76577;DHT22;65441;44.748;37.600;2022-12-20T16:46:25;1.19;63.02
76577;DHT22;65441;44.748;37.600;2022-12-20T16:49:00;1.12;63.31
76577;DHT22;65441;44.748;37.600;2022-12-20T16:51:38;1.18;61.42
76577;DHT22;65441;44.748;37.600;2022-12-20T16:54:18;1.25;63.51
76577;DHT22;65441;44.748;37.600;2022-12-20T16:56:53;1.21;63.50
76577;DHT22;65441;44.748;37.600;2022-12-20T16:59:29;1.32;63.27
76577;DHT22;65441;44.748;37.600;2022-12-20T17:02:17;1.38;63.15
76577;DHT22;65441;44.748;37.600;2022-12-20T17:04:54;1.38;63.20